createdAt,value
2017-09-14T00:01:28.531Z,14.04
2017-09-14T00:03:58.001Z,14.05
2017-09-14T00:06:26.351Z,14.15
2017-09-14T00:08:54.709Z,14.26
2017-09-14T00:11:24.094Z,14.25
2017-09-14T00:13:52.490Z,14.23
2017-09-14T00:16:22.024Z,14.15
2017-09-14T00:18:50.902Z,14.21
2017-09-14T00:21:20.785Z,14.27
2017-09-14T00:23:49.924Z,14.35
2017-09-14T00:26:19.594Z,14.26
2017-09-14T00:28:48.793Z,14.20
2017-09-14T00:31:17.870Z,14.09
2017-09-14T00:33:46.502Z,14.18
2017-09-14T00:36:14.897Z,14.29
2017-09-14T00:38:43.378Z,14.40
2017-09-14T00:41:12.179Z,14.18
2017-09-14T00:43:40.707Z,14.42
2017-09-14T00:46:09.062Z,14.19
2017-09-14T00:48:38.020Z,14.26
2017-09-14T00:51:07.980Z,14.09
2017-09-14T00:53:36.342Z,14.14
2017-09-14T00:56:05.062Z,14.00
2017-09-14T00:58:33.467Z,14.11
2017-09-14T01:01:01.845Z,14.16
2017-09-14T01:03:31.906Z,13.98
2017-09-14T01:06:01.217Z,14.06
2017-09-14T01:08:29.581Z,13.95
2017-09-14T01:10:58.484Z,14.01
2017-09-14T01:13:27.324Z,13.89
2017-09-14T01:15:55.679Z,13.96
2017-09-14T01:18:25.354Z,14.11
2017-09-14T01:20:54.430Z,14.25
2017-09-14T01:23:23.548Z,14.47
2017-09-14T01:25:52.441Z,14.46
2017-09-14T01:28:21.493Z,14.22
2017-09-14T01:30:50.655Z,14.30
2017-09-14T01:33:20.945Z,14.31
2017-09-14T01:35:49.543Z,14.06
2017-09-14T01:38:17.926Z,14.06
2017-09-14T01:40:47.415Z,14.21
2017-09-14T01:43:15.803Z,14.25
2017-09-14T01:45:44.384Z,13.97
2017-09-14T01:48:13.075Z,14.08
2017-09-14T01:50:42.907Z,14.03
2017-09-14T01:53:11.254Z,14.09
2017-09-14T01:55:41.176Z,14.05
2017-09-14T01:58:09.497Z,13.83
2017-09-14T02:00:38.625Z,14.04
2017-09-14T02:03:07.281Z,14.09
2017-09-14T02:05:35.859Z,14.01
2017-09-14T02:08:05.020Z,13.88
2017-09-14T02:10:33.775Z,13.99
2017-09-14T02:13:02.919Z,14.26
2017-09-14T02:15:31.281Z,14.29
2017-09-14T02:18:01.598Z,13.96
2017-09-14T02:20:29.953Z,13.99
2017-09-14T02:22:59.197Z,13.78
2017-09-14T02:25:28.615Z,13.87
2017-09-14T02:27:56.985Z,13.90
2017-09-14T02:30:25.426Z,13.94
2017-09-14T02:32:54.360Z,13.87
2017-09-14T02:35:22.732Z,14.05
2017-09-14T02:37:52.705Z,13.99
2017-09-14T02:40:22.380Z,13.79
2017-09-14T02:42:51.415Z,13.73
2017-09-14T02:45:19.778Z,13.80
2017-09-14T02:47:49.812Z,13.76
2017-09-14T02:50:19.185Z,13.72
2017-09-14T02:52:47.539Z,13.85
2017-09-14T02:55:17.719Z,13.88
2017-09-14T02:57:48.223Z,13.90
2017-09-14T03:00:16.559Z,13.57
2017-09-14T03:02:45.239Z,13.72
2017-09-14T03:05:13.584Z,13.70
2017-09-14T03:07:43.018Z,13.83
2017-09-14T03:10:11.722Z,13.81
2017-09-14T03:12:40.086Z,13.79
2017-09-14T03:15:08.447Z,13.77
2017-09-14T03:17:37.077Z,13.69
2017-09-14T03:20:05.428Z,13.74
2017-09-14T03:22:33.778Z,13.65
2017-09-14T03:25:02.486Z,13.77
2017-09-14T03:27:31.728Z,13.65
2017-09-14T03:30:00.893Z,13.47
2017-09-14T03:32:29.606Z,13.48
2017-09-14T03:34:58.322Z,13.53
2017-09-14T03:37:27.478Z,13.28
2017-09-14T03:39:56.793Z,13.59
2017-09-14T03:42:25.216Z,13.86
2017-09-14T03:44:53.605Z,13.74
2017-09-14T03:47:22.939Z,13.53
2017-09-14T03:49:51.392Z,13.61
2017-09-14T03:52:19.975Z,13.51
2017-09-14T03:54:49.782Z,13.38
2017-09-14T03:57:18.948Z,13.69
2017-09-14T03:59:47.293Z,13.46
2017-09-14T04:02:16.011Z,13.50
2017-09-14T04:04:44.642Z,13.74
2017-09-14T04:07:12.993Z,13.57
2017-09-14T04:09:42.353Z,13.31
2017-09-14T04:12:10.943Z,13.41
2017-09-14T04:14:40.180Z,13.40
2017-09-14T04:17:09.794Z,13.27
2017-09-14T04:19:39.038Z,13.38
2017-09-14T04:22:07.388Z,13.39
2017-09-14T04:24:36.903Z,13.56
2017-09-14T04:27:05.481Z,13.38
2017-09-14T04:29:33.858Z,13.62
2017-09-14T04:32:02.855Z,13.52
2017-09-14T04:34:31.228Z,13.29
2017-09-14T04:36:59.577Z,13.10
2017-09-14T04:39:29.027Z,13.16
2017-09-14T04:41:57.389Z,13.24
2017-09-14T04:44:26.323Z,13.30
2017-09-14T04:46:55.052Z,13.39
2017-09-14T04:49:23.402Z,13.34
2017-09-14T04:51:52.763Z,13.19
2017-09-14T04:54:22.363Z,13.10
2017-09-14T04:56:50.717Z,13.34
2017-09-14T04:59:19.822Z,13.41
2017-09-14T05:01:49.437Z,13.39
2017-09-14T05:04:20.368Z,13.22
2017-09-14T05:06:48.740Z,13.53
2017-09-14T05:09:18.163Z,13.53
2017-09-14T05:11:46.531Z,13.49
2017-09-14T05:14:15.647Z,13.46
2017-09-14T05:16:45.482Z,13.38
2017-09-14T05:19:13.831Z,13.28
2017-09-14T05:21:42.181Z,13.42
2017-09-14T05:24:12.221Z,13.49
2017-09-14T05:26:40.892Z,13.55
2017-09-14T05:29:10.004Z,13.74
2017-09-14T05:31:38.691Z,13.50
2017-09-14T05:34:07.052Z,13.26
2017-09-14T05:36:35.408Z,13.67
2017-09-14T05:39:04.313Z,13.63
2017-09-14T05:41:33.546Z,13.87
2017-09-14T05:44:01.901Z,13.67
2017-09-14T05:46:31.325Z,13.91
2017-09-14T05:49:00.392Z,13.94
2017-09-14T05:51:28.785Z,13.86
2017-09-14T05:53:58.220Z,14.03
2017-09-14T05:56:26.570Z,13.97
2017-09-14T05:58:56.289Z,14.14
2017-09-14T06:01:25.028Z,14.61
2017-09-14T06:03:54.110Z,15.06
2017-09-14T06:06:22.500Z,15.22
2017-09-14T06:08:51.206Z,15.21
2017-09-14T06:11:20.137Z,15.41
2017-09-14T06:13:48.488Z,15.33
2017-09-14T06:16:17.474Z,16.37
2017-09-14T06:18:45.831Z,16.39
2017-09-14T06:21:14.216Z,15.64
2017-09-14T06:23:43.058Z,15.29
2017-09-14T06:26:11.410Z,15.19
2017-09-14T06:28:39.766Z,15.05
2017-09-14T06:31:09.958Z,15.31
2017-09-14T06:33:38.290Z,15.47
2017-09-14T06:36:06.665Z,15.58
2017-09-14T06:38:35.329Z,16.02
2017-09-14T06:41:04.441Z,16.96
2017-09-14T06:43:32.797Z,17.72
2017-09-14T06:46:01.500Z,17.80
2017-09-14T06:48:30.640Z,17.90
2017-09-14T06:50:59.828Z,18.90
2017-09-14T06:53:28.882Z,18.60
2017-09-14T06:55:58.032Z,18.57
2017-09-14T06:58:26.384Z,19.25
2017-09-14T07:00:55.224Z,18.90
2017-09-14T07:03:23.570Z,19.47
2017-09-14T07:05:52.200Z,20.06
2017-09-14T07:08:22.536Z,21.39
2017-09-14T07:10:50.919Z,20.30
2017-09-14T07:13:20.037Z,20.78
2017-09-14T07:15:48.707Z,20.71
2017-09-14T07:18:19.343Z,20.92
2017-09-14T07:20:49.822Z,21.52
2017-09-14T07:23:18.301Z,21.42
2017-09-14T07:25:46.661Z,20.92
2017-09-14T07:28:15.550Z,21.85
2017-09-14T07:30:43.905Z,21.56
2017-09-14T07:33:12.261Z,22.25
2017-09-14T07:35:41.192Z,21.91
2017-09-14T07:38:10.076Z,20.05
2017-09-14T07:40:39.262Z,20.38
2017-09-14T07:43:08.478Z,19.97
2017-09-14T07:45:37.613Z,21.80
2017-09-14T07:48:05.986Z,20.65
2017-09-14T07:50:35.067Z,19.60
2017-09-14T07:53:03.513Z,18.88
2017-09-14T07:55:31.896Z,18.12
2017-09-14T07:58:01.334Z,17.99
2017-09-14T08:00:29.679Z,18.99
2017-09-14T08:02:58.000Z,18.56
2017-09-14T08:05:26.785Z,19.05
2017-09-14T08:07:55.155Z,19.77
2017-09-14T08:10:23.543Z,19.80
2017-09-14T08:12:52.647Z,19.82
2017-09-14T08:15:21.661Z,21.67
2017-09-14T08:17:50.013Z,21.98
2017-09-14T08:20:18.685Z,23.28
2017-09-14T08:22:47.803Z,24.73
2017-09-14T08:25:17.087Z,23.63
2017-09-14T08:27:46.591Z,23.36
2017-09-14T08:30:15.682Z,22.00
2017-09-14T08:32:44.795Z,21.01
2017-09-14T08:35:14.594Z,21.71
2017-09-14T08:37:42.943Z,22.80
2017-09-14T08:40:11.282Z,21.64
2017-09-14T08:42:39.907Z,21.20
2017-09-14T08:45:08.270Z,20.75
2017-09-14T08:47:37.448Z,21.16
2017-09-14T08:50:06.110Z,21.61
2017-09-14T08:52:34.475Z,21.97
2017-09-14T08:55:05.671Z,21.40
2017-09-14T08:57:35.237Z,21.30
2017-09-14T09:00:03.639Z,21.75
2017-09-14T09:02:32.739Z,22.85
2017-09-14T09:05:01.370Z,21.95
2017-09-14T09:07:32.090Z,21.89
2017-09-14T09:10:00.444Z,24.19
2017-09-14T09:12:29.174Z,26.48
2017-09-14T09:14:58.320Z,26.86
2017-09-14T09:17:26.667Z,25.35
2017-09-14T09:19:56.512Z,25.47
2017-09-14T09:22:24.890Z,26.16
2017-09-14T09:24:53.475Z,27.56
2017-09-14T09:27:22.089Z,27.72
2017-09-14T09:29:50.442Z,28.84
2017-09-14T09:32:18.778Z,27.66
2017-09-14T09:34:48.253Z,27.80
2017-09-14T09:37:17.014Z,26.75
2017-09-14T09:39:45.363Z,25.67
2017-09-14T09:42:14.367Z,24.03
2017-09-14T09:44:42.760Z,24.93
2017-09-14T09:47:11.879Z,25.21
2017-09-14T09:49:40.673Z,24.62
2017-09-14T09:52:11.831Z,25.89
2017-09-14T09:54:40.200Z,27.12
2017-09-14T09:57:09.851Z,27.37
2017-09-14T09:59:38.287Z,25.59
2017-09-14T10:02:06.638Z,26.86
2017-09-14T10:04:35.620Z,26.50
2017-09-14T10:07:03.988Z,26.53
2017-09-14T10:09:32.340Z,25.52
2017-09-14T10:12:00.973Z,26.38
2017-09-14T10:14:30.228Z,25.79
2017-09-14T10:16:59.382Z,24.46
2017-09-14T10:19:29.891Z,23.14
2017-09-14T10:21:58.224Z,25.72
2017-09-14T10:24:27.330Z,28.02
2017-09-14T10:26:57.265Z,26.16
2017-09-14T10:29:26.381Z,25.82
2017-09-14T10:31:54.786Z,23.72
2017-09-14T10:34:23.762Z,22.10
2017-09-14T10:36:53.051Z,21.54
2017-09-14T10:39:22.200Z,22.65
2017-09-14T10:41:51.152Z,25.43
2017-09-14T10:44:19.515Z,24.22
2017-09-14T10:46:47.898Z,25.75
2017-09-14T10:49:16.601Z,26.07
2017-09-14T10:51:46.790Z,24.29
2017-09-14T10:54:15.933Z,22.45
2017-09-14T10:56:44.614Z,22.04
2017-09-14T10:59:12.986Z,21.59
2017-09-14T11:01:42.106Z,21.85
2017-09-14T11:04:11.546Z,21.79
2017-09-14T11:06:40.738Z,21.41
2017-09-14T11:09:09.110Z,21.94
2017-09-14T11:11:38.946Z,24.19
2017-09-14T11:14:07.300Z,25.53
2017-09-14T11:16:36.438Z,25.88
2017-09-14T11:19:05.116Z,27.52
2017-09-14T11:21:33.486Z,27.03
2017-09-14T11:24:01.851Z,27.70
2017-09-14T11:26:31.484Z,28.44
2017-09-14T11:28:59.815Z,28.84
2017-09-14T11:31:28.174Z,31.76
2017-09-14T11:33:57.119Z,31.74
2017-09-14T11:36:26.000Z,30.56
2017-09-14T11:38:55.749Z,31.97
2017-09-14T11:41:24.415Z,31.93
2017-09-14T11:43:52.751Z,31.61
2017-09-14T11:46:21.098Z,31.63
2017-09-14T11:48:49.874Z,32.20
2017-09-14T11:51:18.273Z,31.07
2017-09-14T11:53:46.601Z,32.97
2017-09-14T11:56:16.525Z,31.02
2017-09-14T11:58:45.862Z,31.30
2017-09-14T12:01:15.180Z,28.72
2017-09-14T12:03:44.861Z,30.05
2017-09-14T12:06:13.199Z,30.31
2017-09-14T12:08:42.345Z,28.52
2017-09-14T12:11:11.916Z,29.13
2017-09-14T12:13:40.743Z,28.19
2017-09-14T12:16:09.176Z,29.20
2017-09-14T12:18:38.609Z,29.58
2017-09-14T12:21:06.967Z,27.77
2017-09-14T12:23:36.655Z,26.76
2017-09-14T12:26:05.403Z,26.07
2017-09-14T12:28:33.729Z,26.71
2017-09-14T12:31:02.081Z,27.27
2017-09-14T12:33:30.719Z,28.54
2017-09-14T12:35:59.093Z,30.74
2017-09-14T12:38:30.014Z,29.82
2017-09-14T12:40:59.479Z,27.44
2017-09-14T12:43:28.208Z,28.30
2017-09-14T12:45:57.580Z,27.69
2017-09-14T12:48:26.273Z,25.41
2017-09-14T12:50:55.596Z,23.77
2017-09-14T12:53:23.983Z,24.00
2017-09-14T12:55:52.660Z,23.86
2017-09-14T12:58:21.778Z,23.09
2017-09-14T13:00:50.940Z,22.82
2017-09-14T13:03:19.988Z,23.34
2017-09-14T13:05:48.619Z,24.98
2017-09-14T13:08:16.989Z,26.63
2017-09-14T13:10:45.681Z,27.90
2017-09-14T13:13:14.056Z,27.62
2017-09-14T13:15:42.432Z,26.09
2017-09-14T13:18:11.220Z,27.00
2017-09-14T13:20:39.683Z,28.39
2017-09-14T13:23:08.800Z,28.40
2017-09-14T13:25:38.198Z,25.47
2017-09-14T13:28:06.730Z,26.52
2017-09-14T13:30:35.954Z,24.81
2017-09-14T13:33:04.893Z,23.88
2017-09-14T13:35:35.088Z,23.70
2017-09-14T13:38:03.525Z,24.64
2017-09-14T13:40:34.186Z,24.37
2017-09-14T13:43:02.574Z,23.70
2017-09-14T13:45:30.930Z,24.53
2017-09-14T13:48:01.184Z,25.37
2017-09-14T13:50:29.680Z,25.26
2017-09-14T13:52:58.863Z,25.98
2017-09-14T13:55:27.915Z,25.43
2017-09-14T13:57:57.097Z,25.86
2017-09-14T14:00:25.458Z,26.35
2017-09-14T14:02:54.172Z,24.17
2017-09-14T14:05:23.282Z,22.48
2017-09-14T14:07:52.467Z,21.21
2017-09-14T14:10:21.461Z,20.90
2017-09-14T14:12:50.570Z,20.84
2017-09-14T14:15:19.779Z,20.50
2017-09-14T14:17:48.679Z,20.82
2017-09-14T14:20:17.438Z,20.71
2017-09-14T14:22:46.581Z,20.80
2017-09-14T14:25:15.642Z,20.40
2017-09-14T14:27:44.803Z,20.76
2017-09-14T14:30:13.139Z,19.69
2017-09-14T14:32:42.036Z,19.86
2017-09-14T14:35:10.413Z,20.21
2017-09-14T14:37:38.792Z,20.44
2017-09-14T14:40:08.187Z,20.64
2017-09-14T14:42:36.546Z,20.53
2017-09-14T14:45:04.876Z,19.83
2017-09-14T14:47:33.814Z,19.74
2017-09-14T14:50:04.276Z,20.12
2017-09-14T14:52:33.716Z,20.03
2017-09-14T14:55:04.651Z,20.20
2017-09-14T14:57:33.011Z,20.14
2017-09-14T15:00:01.370Z,20.16
2017-09-14T15:02:30.845Z,19.60
2017-09-14T15:04:59.973Z,19.43
2017-09-14T15:07:28.332Z,19.26
2017-09-14T15:09:56.931Z,19.24
2017-09-14T15:12:25.831Z,19.27
2017-09-14T15:14:54.168Z,19.07
2017-09-14T15:17:23.778Z,19.19
2017-09-14T15:19:53.120Z,19.14
2017-09-14T15:22:22.396Z,19.12
2017-09-14T15:24:52.014Z,18.37
2017-09-14T15:27:21.180Z,17.91
2017-09-14T15:29:50.277Z,17.81
2017-09-14T15:32:19.711Z,17.90
2017-09-14T15:34:48.089Z,17.76
2017-09-14T15:37:22.206Z,17.64
2017-09-14T15:39:56.706Z,17.38
2017-09-14T15:42:31.557Z,17.26
2017-09-14T15:45:05.385Z,17.22
2017-09-14T15:47:34.589Z,17.46
2017-09-14T15:50:08.344Z,17.20
2017-09-14T15:52:39.091Z,17.23
2017-09-14T15:55:07.502Z,16.98
2017-09-14T15:57:35.838Z,17.16
2017-09-14T16:00:05.454Z,17.22
2017-09-14T16:02:34.793Z,16.86
2017-09-14T16:05:03.865Z,17.28
2017-09-14T16:07:32.643Z,17.51
2017-09-14T16:10:00.982Z,17.63
2017-09-14T16:12:29.349Z,17.65
2017-09-14T16:14:58.330Z,17.74
2017-09-14T16:17:26.694Z,17.72
2017-09-14T16:19:55.048Z,17.55
2017-09-14T16:22:23.813Z,17.58
2017-09-14T16:24:53.715Z,17.62
2017-09-14T16:27:22.098Z,17.72
2017-09-14T16:29:51.065Z,17.80
2017-09-14T16:32:20.273Z,17.79
2017-09-14T16:34:49.514Z,17.95
2017-09-14T16:37:19.626Z,17.97
2017-09-14T16:39:47.989Z,17.86
2017-09-14T16:42:16.610Z,17.48
2017-09-14T16:44:45.388Z,17.44
2017-09-14T16:47:13.770Z,17.60
2017-09-14T16:49:46.266Z,17.47
2017-09-14T16:52:14.668Z,16.67
2017-09-14T16:54:43.027Z,16.45
2017-09-14T16:57:11.800Z,16.55
2017-09-14T16:59:41.980Z,16.63
2017-09-14T17:02:11.424Z,16.63
2017-09-14T17:04:40.841Z,16.54
2017-09-14T17:07:09.208Z,16.38
2017-09-14T17:09:39.039Z,16.37
2017-09-14T17:12:08.747Z,16.60
2017-09-14T17:14:37.115Z,16.27
2017-09-14T17:17:06.274Z,16.10
2017-09-14T17:19:35.459Z,16.29
2017-09-14T17:22:03.808Z,16.34
2017-09-14T17:24:32.159Z,16.04
2017-09-14T17:27:01.577Z,15.99
2017-09-14T17:29:29.956Z,15.99
2017-09-14T17:31:58.299Z,15.88
2017-09-14T17:34:26.922Z,15.92
2017-09-14T17:36:55.578Z,15.76
2017-09-14T17:39:24.107Z,15.57
2017-09-14T17:41:52.931Z,15.76
2017-09-14T17:44:22.115Z,15.78
2017-09-14T17:46:51.385Z,15.76
2017-09-14T17:49:20.023Z,15.72
2017-09-14T17:51:48.387Z,15.71
2017-09-14T17:54:17.326Z,15.62
2017-09-14T17:56:46.801Z,15.57
2017-09-14T17:59:16.113Z,15.39
2017-09-14T18:01:44.471Z,15.49
2017-09-14T18:04:13.297Z,15.30
2017-09-14T18:06:43.470Z,15.60
2017-09-14T18:09:12.052Z,15.74
2017-09-14T18:11:43.581Z,15.82
2017-09-14T18:14:11.931Z,15.90
2017-09-14T18:16:41.042Z,15.85
2017-09-14T18:19:09.711Z,15.68
2017-09-14T18:21:38.875Z,15.53
2017-09-14T18:24:07.560Z,15.65
2017-09-14T18:26:36.268Z,15.75
2017-09-14T18:29:05.325Z,15.45
2017-09-14T18:31:34.607Z,15.55
2017-09-14T18:34:03.274Z,15.94
2017-09-14T18:36:32.747Z,15.62
2017-09-14T18:39:01.105Z,15.16
2017-09-14T18:41:30.669Z,15.29
2017-09-14T18:44:01.978Z,15.47
2017-09-14T18:46:30.345Z,15.69
2017-09-14T18:48:59.225Z,15.77
2017-09-14T18:51:28.410Z,15.99
2017-09-14T18:53:58.481Z,15.91
2017-09-14T18:56:27.978Z,15.96
2017-09-14T18:58:57.785Z,15.44
2017-09-14T19:01:26.123Z,15.53
2017-09-14T19:03:55.674Z,15.74
2017-09-14T19:06:24.040Z,15.82
2017-09-14T19:08:52.428Z,15.86
2017-09-14T19:11:21.321Z,15.63
2017-09-14T19:13:51.494Z,15.56
2017-09-14T19:16:22.667Z,15.58
2017-09-14T19:18:51.068Z,15.83
2017-09-14T19:21:19.476Z,15.65
2017-09-14T19:23:48.123Z,15.36
2017-09-14T19:26:17.611Z,15.60
2017-09-14T19:28:47.118Z,15.33
2017-09-14T19:31:16.913Z,15.38
2017-09-14T19:33:46.176Z,15.21
2017-09-14T19:36:15.599Z,15.12
2017-09-14T19:38:45.767Z,15.33
2017-09-14T19:41:15.133Z,15.28
2017-09-14T19:43:44.326Z,15.24
2017-09-14T19:46:14.113Z,15.01
2017-09-14T19:48:42.698Z,15.19
2017-09-14T19:51:11.841Z,15.43
2017-09-14T19:53:42.190Z,15.58
2017-09-14T19:56:10.518Z,15.42
2017-09-14T19:58:39.786Z,15.56
2017-09-14T20:01:09.366Z,15.44
2017-09-14T20:03:38.123Z,15.41
2017-09-14T20:06:07.273Z,15.31
2017-09-14T20:08:36.040Z,15.35
2017-09-14T20:11:05.820Z,15.24
2017-09-14T20:13:34.278Z,15.25
2017-09-14T20:16:04.864Z,15.18
2017-09-14T20:18:33.256Z,15.15
2017-09-14T20:21:01.624Z,15.16
2017-09-14T20:23:31.249Z,15.10
2017-09-14T20:25:59.640Z,15.04
2017-09-14T20:28:28.384Z,15.11
2017-09-14T20:30:57.678Z,15.29
2017-09-14T20:33:26.370Z,14.97
2017-09-14T20:35:54.794Z,14.91
2017-09-14T20:38:23.736Z,15.16
2017-09-14T20:40:52.161Z,15.26
2017-09-14T20:43:20.521Z,15.16
2017-09-14T20:45:49.202Z,15.16
2017-09-14T20:48:17.618Z,15.30
2017-09-14T20:50:50.152Z,15.21
2017-09-14T20:53:19.440Z,15.24
2017-09-14T20:55:48.085Z,15.23
2017-09-14T20:58:16.469Z,15.47
2017-09-14T21:00:46.022Z,15.29
2017-09-14T21:03:14.415Z,15.28
2017-09-14T21:05:42.782Z,15.27
2017-09-14T21:08:11.682Z,15.33
2017-09-14T21:10:40.065Z,15.29
2017-09-14T21:13:08.473Z,15.35
2017-09-14T21:15:37.957Z,14.98
2017-09-14T21:18:06.763Z,15.09
2017-09-14T21:20:35.118Z,15.27
2017-09-14T21:23:03.826Z,15.36
2017-09-14T21:25:32.579Z,15.31
2017-09-14T21:28:00.978Z,15.01
2017-09-14T21:30:30.689Z,15.26
2017-09-14T21:32:59.061Z,15.45
2017-09-14T21:35:27.456Z,15.40
2017-09-14T21:37:56.320Z,15.48
2017-09-14T21:40:24.744Z,15.66
2017-09-14T21:42:53.982Z,15.66
2017-09-14T21:45:23.594Z,15.58
2017-09-14T21:47:52.003Z,15.64
2017-09-14T21:50:20.367Z,15.63
2017-09-14T21:52:49.076Z,15.49
2017-09-14T21:55:17.455Z,15.37
2017-09-14T21:57:45.854Z,15.31
2017-09-14T22:00:14.535Z,15.22
2017-09-14T22:02:43.022Z,15.39
2017-09-14T22:05:11.392Z,15.29
2017-09-14T22:07:40.213Z,15.35
2017-09-14T22:10:09.376Z,15.58
2017-09-14T22:12:38.476Z,15.61
2017-09-14T22:15:08.669Z,15.55
2017-09-14T22:17:37.674Z,15.34
2017-09-14T22:20:06.044Z,15.36
2017-09-14T22:22:34.781Z,15.31
2017-09-14T22:25:03.164Z,15.23
2017-09-14T22:27:31.560Z,15.34
2017-09-14T22:30:00.372Z,15.35
2017-09-14T22:32:28.781Z,15.42
2017-09-14T22:34:57.134Z,15.35
2017-09-14T22:37:26.074Z,15.14
2017-09-14T22:39:54.673Z,15.22
2017-09-14T22:42:23.836Z,15.30
2017-09-14T22:44:53.010Z,15.25
2017-09-14T22:47:21.439Z,15.48
2017-09-14T22:49:50.979Z,15.44
2017-09-14T22:52:19.697Z,15.52
2017-09-14T22:54:48.309Z,15.26
2017-09-14T22:57:17.375Z,15.35
2017-09-14T22:59:46.029Z,15.37
2017-09-14T23:02:14.428Z,15.46
2017-09-14T23:04:42.820Z,15.35
2017-09-14T23:07:11.506Z,15.33
2017-09-14T23:09:40.871Z,15.37
2017-09-14T23:12:09.930Z,15.28
2017-09-14T23:14:39.069Z,15.08
2017-09-14T23:17:07.431Z,15.17
2017-09-14T23:19:37.332Z,15.23
2017-09-14T23:22:06.179Z,15.34
2017-09-14T23:24:34.541Z,15.35
2017-09-14T23:27:03.762Z,15.37
2017-09-14T23:29:33.562Z,15.40
2017-09-14T23:32:03.172Z,15.26
2017-09-14T23:34:31.624Z,15.45
2017-09-14T23:37:00.446Z,15.31
2017-09-14T23:39:29.543Z,15.21
2017-09-14T23:41:58.778Z,15.24
2017-09-14T23:44:27.488Z,15.23
2017-09-14T23:46:55.861Z,15.11
2017-09-14T23:49:24.270Z,15.18
2017-09-14T23:51:52.959Z,15.35
2017-09-14T23:54:24.252Z,15.25
2017-09-14T23:56:54.119Z,15.26
2017-09-14T23:59:23.203Z,15.27
